Winter, Wisconsin
Current Conditions -  °F | °C
As of 11:55 AM on Friday 28 Nov 2014 (Local Time) from KRCX Reporting Station
Overcast Overcast  
Wind Chill:   Ceiling: 2400
Heat Index: 16°   Visibility: 10mi
Dew Point: 11°   Wind: 8mph
Humidity: 79%   Direction: 150°SSE
Pressure: 29.98"   Gusts: NA
Location:  45.82°N, 91.01°W
Report Text: KRCX 281755Z AUTO 15007KT 10SM SCT016 OVC024 M09/M12 A2998 RMK AO2 T10871118 11087 21127
Loading
Personal Weather Stations






























Interactive Weather Map New forecast layout! Learn more

10-Day Weather Forecast

Advertisements
Track Severe Weather on mobile